Terminal Aerodrome Forecast
Issued by NWS

Home | Current Version | Previous Version | Text Only | Print | Product List | Glossary On
Versions: 1 2 3 4 5 6 7 8 9 10
000
FTUS45 KVEF 272300
TAFBIH
TAF
KBIH 272326Z 2800/2824 17006KT P6SM BKN250
     FM280300 32005KT P6SM BKN250
     FM281900 VRB04KT P6SM SCT250=

USA.gov is the U.S. government's official web portal to all federal, state and local government web resources and services.